Time,TemperatureF,DewpointF,PressureIn,WindDirection,WindDirectionDegrees,WindSpeedMPH,WindSpeedGustMPH,Humidity,HourlyPrecipIn,Conditions,Clouds,dailyrainin,SoftwareType,DateUTC
2013-11-05 00:02:00,41.3,39.2,30.05,WSW,254,2.0,4.0,92,0.00,,---,0.00,VWS V14.01,2013-11-05 06:02:00,
2013-11-05 00:07:00,41.4,39.2,30.05,West,264,1.0,4.0,92,0.00,,---,0.00,VWS V14.01,2013-11-05 06:07:00,
2013-11-05 00:12:00,41.3,39.2,30.05,West,265,2.0,4.0,92,0.00,,---,0.00,VWS V14.01,2013-11-05 06:12:00,
2013-11-05 00:17:00,41.2,39.1,30.05,WSW,241,2.0,6.0,92,0.00,,---,0.00,VWS V14.01,2013-11-05 06:17:00,
2013-11-05 00:23:00,41.1,39.0,30.05,WSW,253,2.0,6.0,92,0.00,,---,0.00,VWS V14.01,2013-11-05 06:23:00,
2013-11-05 00:28:00,40.9,38.5,30.05,West,273,4.0,7.0,91,0.00,,---,0.00,VWS V14.01,2013-11-05 06:28:00,
2013-11-05 00:33:00,40.8,38.1,30.06,West,265,4.0,5.0,90,0.00,,---,0.00,VWS V14.01,2013-11-05 06:33:00,
2013-11-05 00:38:00,40.6,37.9,30.06,WNW,284,3.0,5.0,90,0.00,,---,0.00,VWS V14.01,2013-11-05 06:38:00,
2013-11-05 00:43:00,40.5,37.8,30.06,West,266,4.0,9.0,90,0.00,,---,0.00,VWS V14.01,2013-11-05 06:43:00,
2013-11-05 00:48:00,40.4,37.7,30.06,WNW,287,4.0,9.0,90,0.00,,---,0.00,VWS V14.01,2013-11-05 06:48:00,
2013-11-05 00:53:00,40.2,37.5,30.06,West,266,4.0,9.0,90,0.00,,---,0.00,VWS V14.01,2013-11-05 06:53:00,
2013-11-05 00:58:00,40.1,37.7,30.06,WNW,290,3.0,9.0,91,0.00,,---,0.00,VWS V14.01,2013-11-05 06:58:00,
2013-11-05 01:03:00,40.0,37.6,30.06,WSW,237,1.0,6.0,91,0.00,,---,0.00,VWS V14.01,2013-11-05 07:03:00,
2013-11-05 01:08:00,39.8,37.4,30.06,WNW,289,1.0,6.0,91,0.00,,---,0.00,VWS V14.01,2013-11-05 07:08:00,
2013-11-05 01:13:00,39.5,37.4,30.06,West,271,2.0,6.0,92,0.00,,---,0.00,VWS V14.01,2013-11-05 07:13:00,
2013-11-05 01:18:00,39.2,37.1,30.07,West,259,4.0,6.0,92,0.00,,---,0.00,VWS V14.01,2013-11-05 07:18:00,
2013-11-05 01:23:00,39.1,37.0,30.07,West,271,4.0,6.0,92,0.00,,---,0.00,VWS V14.01,2013-11-05 07:23:00,
2013-11-05 01:28:00,38.9,36.8,30.07,WSW,250,5.0,9.0,92,0.00,,---,0.00,VWS V14.01,2013-11-05 07:28:00,
2013-11-05 01:33:00,38.8,36.7,30.08,WSW,253,3.0,5.0,92,0.00,,---,0.00,VWS V14.01,2013-11-05 07:33:00,
2013-11-05 01:38:00,38.6,36.5,30.08,West,270,2.0,5.0,92,0.00,,---,0.00,VWS V14.01,2013-11-05 07:38:00,
2013-11-05 01:43:00,38.3,36.2,30.08,WNW,284,1.0,5.0,92,0.00,,---,0.00,VWS V14.01,2013-11-05 07:43:00,
2013-11-05 01:48:00,38.1,36.3,30.08,West,265,1.0,5.0,93,0.00,,---,0.00,VWS V14.01,2013-11-05 07:48:00,
2013-11-05 01:53:00,37.9,36.1,30.08,West,267,1.0,5.0,93,0.00,,---,0.00,VWS V14.01,2013-11-05 07:53:00,
2013-11-05 01:58:00,37.6,35.8,30.08,WSW,253,1.0,5.0,93,0.00,,---,0.00,VWS V14.01,2013-11-05 07:58:00,
2013-11-05 02:03:00,37.5,35.9,30.09,West,265,0.0,4.0,94,0.00,,---,0.00,VWS V14.01,2013-11-05 08:03:00,
2013-11-05 02:08:00,37.3,35.7,30.09,WSW,256,1.0,4.0,94,0.00,,---,0.00,VWS V14.01,2013-11-05 08:08:00,
2013-11-05 02:14:00,37.1,35.5,30.09,WSW,254,0.0,4.0,94,0.00,,---,0.00,VWS V14.01,2013-11-05 08:14:00,
2013-11-05 02:19:00,36.8,35.2,30.09,WSW,254,0.0,4.0,94,0.00,,---,0.00,VWS V14.01,2013-11-05 08:19:00,
2013-11-05 02:24:00,36.5,34.9,30.09,WSW,254,0.0,4.0,94,0.00,,---,0.00,VWS V14.01,2013-11-05 08:24:00,
2013-11-05 02:29:00,36.1,34.5,30.09,WSW,254,0.0,4.0,94,0.00,,---,0.00,VWS V14.01,2013-11-05 08:29:00,
2013-11-05 02:34:00,35.6,34.0,30.09,WSW,254,0.0,0.0,94,0.00,,---,0.00,VWS V14.01,2013-11-05 08:34:00,
2013-11-05 02:39:00,35.3,34.0,30.09,WSW,254,0.0,0.0,95,0.00,,---,0.00,VWS V14.01,2013-11-05 08:39:00,
2013-11-05 02:44:00,35.4,34.4,30.09,WSW,254,0.0,1.0,96,0.00,,---,0.00,VWS V14.01,2013-11-05 08:44:00,
2013-11-05 02:49:00,35.3,34.3,30.09,WSW,254,0.0,1.0,96,0.00,,---,0.00,VWS V14.01,2013-11-05 08:49:00,
2013-11-05 02:54:00,35.1,34.1,30.09,WSW,254,0.0,1.0,96,0.00,,---,0.00,VWS V14.01,2013-11-05 08:54:00,
2013-11-05 02:59:00,35.0,34.0,30.09,WSW,254,0.0,1.0,96,0.00,,---,0.00,VWS V14.01,2013-11-05 08:59:00,
2013-11-05 03:04:00,34.9,33.9,30.10,WSW,254,0.0,1.0,96,0.00,,---,0.00,VWS V14.01,2013-11-05 09:04:00,
2013-11-05 03:09:00,34.8,33.8,30.10,WSW,254,0.0,1.0,96,0.00,,---,0.00,VWS V14.01,2013-11-05 09:09:00,
2013-11-05 03:14:00,34.6,33.6,30.09,WSW,254,0.0,1.0,96,0.00,,---,0.00,VWS V14.01,2013-11-05 09:14:00,
2013-11-05 03:19:00,34.4,33.6,30.09,WSW,254,0.0,1.0,97,0.00,,---,0.00,VWS V14.01,2013-11-05 09:19:00,
2013-11-05 03:24:00,34.3,33.5,30.09,WSW,254,0.0,1.0,97,0.00,,---,0.00,VWS V14.01,2013-11-05 09:24:00,
2013-11-05 03:29:00,34.1,33.3,30.09,WSW,254,0.0,1.0,97,0.00,,---,0.00,VWS V14.01,2013-11-05 09:29:00,
2013-11-05 03:34:00,34.0,33.2,30.09,WSW,254,0.0,0.0,97,0.00,,---,0.00,VWS V14.01,2013-11-05 09:34:00,
2013-11-05 03:39:00,34.0,33.2,30.09,WSW,254,0.0,0.0,97,0.00,,---,0.00,VWS V14.01,2013-11-05 09:39:00,
2013-11-05 03:44:00,33.9,33.1,30.09,WSW,254,0.0,0.0,97,0.00,,---,0.00,VWS V14.01,2013-11-05 09:44:00,
2013-11-05 03:49:00,33.8,33.0,30.09,WSW,254,0.0,0.0,97,0.00,,---,0.00,VWS V14.01,2013-11-05 09:49:00,
2013-11-05 03:54:00,33.7,32.9,30.09,WSW,254,0.0,0.0,97,0.00,,---,0.00,VWS V14.01,2013-11-05 09:54:00,
2013-11-05 03:59:00,33.5,32.7,30.09,WSW,254,0.0,0.0,97,0.00,,---,0.00,VWS V14.01,2013-11-05 09:59:00,
2013-11-05 04:04:00,33.5,32.7,30.09,WSW,254,0.0,0.0,97,0.00,,---,0.00,VWS V14.01,2013-11-05 10:04:00,
2013-11-05 04:09:00,33.3,32.5,30.09,WSW,254,0.0,0.0,97,0.00,,---,0.00,VWS V14.01,2013-11-05 10:09:00,
2013-11-05 04:15:00,33.2,32.4,30.10,WSW,254,0.0,0.0,97,0.00,,---,0.00,VWS V14.01,2013-11-05 10:15:00,
2013-11-05 04:20:00,33.2,32.7,30.10,WSW,254,0.0,0.0,98,0.00,,---,0.00,VWS V14.01,2013-11-05 10:20:00,
2013-11-05 04:25:00,33.2,32.7,30.10,WSW,254,0.0,0.0,98,0.00,,---,0.00,VWS V14.01,2013-11-05 10:25:00,
2013-11-05 04:30:00,33.1,32.6,30.10,WSW,255,0.0,0.0,98,0.00,,---,0.00,VWS V14.01,2013-11-05 10:30:00,
2013-11-05 04:35:00,32.9,32.4,30.10,WSW,254,0.0,0.0,98,0.00,,---,0.00,VWS V14.01,2013-11-05 10:35:00,
2013-11-05 04:40:00,32.6,32.1,30.10,WSW,254,0.0,0.0,98,0.00,,---,0.00,VWS V14.01,2013-11-05 10:40:00,
2013-11-05 04:45:00,32.7,32.2,30.11,WSW,254,0.0,0.0,98,0.00,,---,0.00,VWS V14.01,2013-11-05 10:45:00,
2013-11-05 04:50:00,32.8,32.3,30.11,WSW,255,0.0,0.0,98,0.00,,---,0.00,VWS V14.01,2013-11-05 10:50:00,
2013-11-05 04:55:00,32.6,32.1,30.11,WSW,254,0.0,0.0,98,0.00,,---,0.00,VWS V14.01,2013-11-05 10:55:00,
2013-11-05 05:00:00,32.5,32.0,30.11,WSW,254,0.0,0.0,98,0.00,,---,0.00,VWS V14.01,2013-11-05 11:00:00,
2013-11-05 05:05:00,32.4,31.9,30.11,WSW,254,0.0,0.0,98,0.00,,---,0.00,VWS V14.01,2013-11-05 11:05:00,
2013-11-05 05:10:00,32.3,31.8,30.11,WSW,254,0.0,0.0,98,0.00,,---,0.00,VWS V14.01,2013-11-05 11:10:00,
2013-11-05 05:15:00,32.3,31.8,30.11,SSE,150,0.0,0.0,98,0.00,,---,0.00,VWS V14.01,2013-11-05 11:15:00,
2013-11-05 05:20:00,32.4,31.9,30.11,SSE,149,0.0,0.0,98,0.00,,---,0.00,VWS V14.01,2013-11-05 11:20:00,
2013-11-05 05:25:00,32.5,32.0,30.11,SSE,159,0.0,1.0,98,0.00,,---,0.00,VWS V14.01,2013-11-05 11:25:00,
2013-11-05 05:30:00,32.5,32.0,30.12,SSE,159,0.0,0.0,98,0.00,,---,0.00,VWS V14.01,2013-11-05 11:30:00,
2013-11-05 05:35:00,32.5,32.0,30.12,SW,232,0.0,1.0,98,0.00,,---,0.00,VWS V14.01,2013-11-05 11:35:00,
2013-11-05 05:40:00,32.6,32.1,30.12,SSW,203,0.0,2.0,98,0.00,,---,0.00,VWS V14.01,2013-11-05 11:40:00,
2013-11-05 05:45:00,32.7,32.2,30.12,SSE,148,0.0,2.0,98,0.00,,---,0.00,VWS V14.01,2013-11-05 11:45:00,
2013-11-05 05:50:00,32.7,32.2,30.12,SSE,163,0.0,2.0,98,0.00,,---,0.00,VWS V14.01,2013-11-05 11:50:00,
2013-11-05 05:55:00,32.6,32.1,30.12,SSE,163,0.0,2.0,98,0.00,,---,0.00,VWS V14.01,2013-11-05 11:55:00,
2013-11-05 06:00:00,32.6,32.1,30.13,SSE,163,0.0,0.0,98,0.00,,---,0.00,VWS V14.01,2013-11-05 12:00:00,
2013-11-05 06:06:00,32.5,32.0,30.13,SSE,165,0.0,0.0,98,0.00,,---,0.00,VWS V14.01,2013-11-05 12:06:00,
2013-11-05 06:11:00,32.5,32.0,30.13,SW,217,0.0,1.0,98,0.00,,---,0.00,VWS V14.01,2013-11-05 12:11:00,
2013-11-05 06:16:00,32.4,31.9,30.14,SW,217,0.0,1.0,98,0.00,,---,0.00,VWS V14.01,2013-11-05 12:16:00,
2013-11-05 06:21:00,32.1,31.6,30.14,SW,217,0.0,1.0,98,0.00,,---,0.00,VWS V14.01,2013-11-05 12:21:00,
2013-11-05 06:26:00,31.7,31.2,30.14,SW,217,0.0,1.0,98,0.00,,---,0.00,VWS V14.01,2013-11-05 12:26:00,
2013-11-05 06:31:00,31.5,31.0,30.13,SW,217,0.0,0.0,98,0.00,,---,0.00,VWS V14.01,2013-11-05 12:31:00,
2013-11-05 06:36:00,31.3,30.8,30.13,SW,217,0.0,0.0,98,0.00,,---,0.00,VWS V14.01,2013-11-05 12:36:00,
2013-11-05 06:41:00,31.2,30.7,30.13,SW,217,0.0,0.0,98,0.00,,---,0.00,VWS V14.01,2013-11-05 12:41:00,
2013-11-05 06:46:00,31.0,30.5,30.14,SW,217,0.0,0.0,98,0.00,,---,0.00,VWS V14.01,2013-11-05 12:46:00,
2013-11-05 06:51:00,31.0,30.5,30.14,SW,217,0.0,0.0,98,0.00,,---,0.00,VWS V14.01,2013-11-05 12:51:00,
2013-11-05 06:56:00,30.8,30.3,30.14,SW,217,0.0,0.0,98,0.00,,---,0.00,VWS V14.01,2013-11-05 12:56:00,
2013-11-05 07:01:00,30.7,30.2,30.14,SW,217,0.0,0.0,98,0.00,,---,0.00,VWS V14.01,2013-11-05 13:01:00,
2013-11-05 07:06:00,30.8,30.3,30.14,SW,217,0.0,0.0,98,0.00,,---,0.00,VWS V14.01,2013-11-05 13:06:00,
2013-11-05 07:11:00,30.9,30.4,30.14,SW,217,0.0,0.0,98,0.00,,---,0.00,VWS V14.01,2013-11-05 13:11:00,
2013-11-05 07:16:00,31.0,30.5,30.15,SW,217,0.0,0.0,98,0.00,,---,0.00,VWS V14.01,2013-11-05 13:16:00,
2013-11-05 07:21:00,31.0,30.5,30.15,SW,217,0.0,0.0,98,0.00,,---,0.00,VWS V14.01,2013-11-05 13:21:00,
2013-11-05 07:26:00,31.1,30.6,30.15,SW,217,0.0,0.0,98,0.00,,---,0.00,VWS V14.01,2013-11-05 13:26:00,
2013-11-05 07:31:00,31.3,30.8,30.15,SW,217,0.0,0.0,98,0.00,,---,0.00,VWS V14.01,2013-11-05 13:31:00,
2013-11-05 07:36:00,31.3,30.8,30.15,SW,217,0.0,0.0,98,0.00,,---,0.00,VWS V14.01,2013-11-05 13:36:00,
2013-11-05 07:41:00,31.4,30.9,30.15,SW,217,0.0,0.0,98,0.00,,---,0.00,VWS V14.01,2013-11-05 13:41:00,
2013-11-05 07:46:00,31.7,31.2,30.16,East,97,0.0,1.0,98,0.00,,---,0.00,VWS V14.01,2013-11-05 13:46:00,
2013-11-05 07:52:00,32.3,31.8,30.16,SE,128,0.0,1.0,98,0.00,,---,0.00,VWS V14.01,2013-11-05 13:52:00,
2013-11-05 07:57:00,32.8,32.3,30.16,SE,141,0.0,1.0,98,0.00,,---,0.00,VWS V14.01,2013-11-05 13:57:00,
2013-11-05 08:02:00,33.2,32.7,30.16,SSE,164,0.0,0.0,98,0.00,,---,0.00,VWS V14.01,2013-11-05 14:02:00,
2013-11-05 08:07:00,33.6,33.3,30.16,SSE,165,0.0,0.0,99,0.00,,---,0.00,VWS V14.01,2013-11-05 14:07:00,
2013-11-05 08:12:00,33.9,33.7,30.16,SE,130,0.0,2.0,99,0.00,,---,0.00,VWS V14.01,2013-11-05 14:12:00,
2013-11-05 08:17:00,34.1,33.8,30.16,West,280,0.0,2.0,99,0.00,,---,0.00,VWS V14.01,2013-11-05 14:17:00,
2013-11-05 08:22:00,34.3,34.0,30.16,West,260,1.0,2.0,99,0.00,,---,0.00,VWS V14.01,2013-11-05 14:22:00,
2013-11-05 08:27:00,34.7,34.5,30.16,West,260,0.0,2.0,99,0.00,,---,0.00,VWS V14.01,2013-11-05 14:27:00,
2013-11-05 08:32:00,35.0,34.8,30.16,WSW,253,0.0,1.0,99,0.00,,---,0.00,VWS V14.01,2013-11-05 14:32:00,
2013-11-05 08:37:00,35.2,35.0,30.16,WSW,253,1.0,2.0,99,0.00,,---,0.00,VWS V14.01,2013-11-05 14:37:00,
2013-11-05 08:42:00,35.5,35.2,30.16,West,260,1.0,3.0,99,0.00,,---,0.00,VWS V14.01,2013-11-05 14:42:00,
2013-11-05 08:47:00,35.8,35.5,30.17,West,267,0.0,3.0,99,0.00,,---,0.00,VWS V14.01,2013-11-05 14:47:00,
2013-11-05 08:52:00,36.0,35.8,30.17,West,264,1.0,3.0,99,0.00,,---,0.00,VWS V14.01,2013-11-05 14:52:00,
2013-11-05 08:57:00,36.3,36.0,30.17,WSW,244,1.0,3.0,99,0.00,,---,0.00,VWS V14.01,2013-11-05 14:57:00,
2013-11-05 09:02:00,36.7,36.5,30.17,WSW,244,0.0,1.0,99,0.00,,---,0.00,VWS V14.01,2013-11-05 15:02:00,
2013-11-05 09:07:00,37.0,36.5,30.17,WNW,287,0.0,2.0,98,0.00,,---,0.00,VWS V14.01,2013-11-05 15:07:00,
2013-11-05 09:12:00,37.2,36.7,30.17,WSW,248,1.0,3.0,98,0.00,,---,0.00,VWS V14.01,2013-11-05 15:12:00,
2013-11-05 09:17:00,37.6,36.3,30.17,WSW,258,2.0,3.0,95,0.00,,---,0.00,VWS V14.01,2013-11-05 15:17:00,
2013-11-05 09:22:00,38.0,36.4,30.17,WSW,253,2.0,3.0,94,0.00,,---,0.00,VWS V14.01,2013-11-05 15:22:00,
2013-11-05 09:27:00,38.3,36.2,30.17,West,263,0.0,3.0,92,0.00,,---,0.00,VWS V14.01,2013-11-05 15:27:00,
2013-11-05 09:32:00,38.7,36.8,30.16,SW,227,1.0,2.0,93,0.00,,---,0.00,VWS V14.01,2013-11-05 15:32:00,
2013-11-05 09:37:00,38.9,36.2,30.16,WSW,245,1.0,2.0,90,0.00,,---,0.00,VWS V14.01,2013-11-05 15:37:00,
2013-11-05 09:42:00,39.3,36.3,30.16,WSW,237,0.0,2.0,89,0.00,,---,0.00,VWS V14.01,2013-11-05 15:42:00,
2013-11-05 09:47:00,39.6,36.6,30.16,WSW,253,2.0,2.0,89,0.00,,---,0.00,VWS V14.01,2013-11-05 15:47:00,
2013-11-05 09:52:00,39.8,36.0,30.16,SSW,211,1.0,2.0,86,0.00,,---,0.00,VWS V14.01,2013-11-05 15:52:00,
2013-11-05 09:58:00,40.1,36.3,30.16,West,265,1.0,4.0,86,0.00,,---,0.00,VWS V14.01,2013-11-05 15:58:00,
2013-11-05 10:03:00,40.4,36.0,30.16,WSW,240,2.0,3.0,84,0.00,,---,0.00,VWS V14.01,2013-11-05 16:03:00,
2013-11-05 10:08:00,40.6,35.8,30.16,South,175,4.0,4.0,83,0.00,,---,0.00,VWS V14.01,2013-11-05 16:08:00,
2013-11-05 10:13:00,41.0,35.0,30.16,WSW,250,3.0,4.0,79,0.00,,---,0.00,VWS V14.01,2013-11-05 16:13:00,
2013-11-05 10:18:00,41.3,35.6,30.16,WSW,257,1.0,4.0,80,0.00,,---,0.00,VWS V14.01,2013-11-05 16:18:00,
2013-11-05 10:23:00,41.5,36.1,30.16,WSW,252,2.0,4.0,81,0.00,,---,0.00,VWS V14.01,2013-11-05 16:23:00,
2013-11-05 10:28:00,41.6,35.6,30.16,WNW,298,1.0,4.0,79,0.00,,---,0.00,VWS V14.01,2013-11-05 16:28:00,
2013-11-05 10:33:00,42.1,35.1,30.16,SSE,155,1.0,3.0,76,0.00,,---,0.00,VWS V14.01,2013-11-05 16:33:00,
2013-11-05 10:38:00,42.3,34.6,30.16,West,264,3.0,5.0,74,0.00,,---,0.00,VWS V14.01,2013-11-05 16:38:00,
2013-11-05 10:43:00,42.3,35.0,30.16,West,270,4.0,5.0,75,0.00,,---,0.00,VWS V14.01,2013-11-05 16:43:00,
2013-11-05 10:48:00,42.3,35.0,30.18,SSW,211,3.0,5.0,75,0.00,,---,0.00,VWS V14.01,2013-11-05 16:48:00,
2013-11-05 10:54:00,42.4,35.4,30.18,West,267,5.0,5.0,76,0.00,,---,0.00,VWS V14.01,2013-11-05 16:54:00,
2013-11-05 10:59:00,42.5,35.2,30.18,WSW,253,5.0,6.0,75,0.00,,---,0.00,VWS V14.01,2013-11-05 16:59:00,
2013-11-05 11:04:00,42.2,35.2,30.19,WSW,253,0.0,3.0,76,0.00,,---,0.00,VWS V14.01,2013-11-05 17:04:00,
2013-11-05 11:09:00,42.6,35.6,30.19,West,271,1.0,4.0,76,0.00,,---,0.00,VWS V14.01,2013-11-05 17:09:00,
2013-11-05 11:14:00,43.2,35.5,30.19,SSE,168,2.0,7.0,74,0.00,,---,0.00,VWS V14.01,2013-11-05 17:14:00,
2013-11-05 11:19:00,43.8,36.4,30.19,SW,218,1.0,7.0,75,0.00,,---,0.00,VWS V14.01,2013-11-05 17:19:00,
2013-11-05 11:24:00,44.0,36.3,30.19,West,264,3.0,9.0,74,0.00,,---,0.00,VWS V14.01,2013-11-05 17:24:00,
2013-11-05 11:29:00,44.2,36.1,30.18,West,275,6.0,9.0,73,0.00,,---,0.00,VWS V14.01,2013-11-05 17:29:00,
2013-11-05 11:34:00,44.2,35.8,30.18,WNW,296,4.0,7.0,72,0.00,,---,0.00,VWS V14.01,2013-11-05 17:34:00,
2013-11-05 11:39:00,44.0,35.9,30.18,SE,133,1.0,7.0,73,0.00,,---,0.00,VWS V14.01,2013-11-05 17:39:00,
2013-11-05 11:44:00,44.4,36.7,30.17,West,275,1.0,7.0,74,0.00,,---,0.00,VWS V14.01,2013-11-05 17:44:00,
2013-11-05 11:49:00,45.0,36.2,30.17,SW,223,5.0,7.0,71,0.00,,---,0.00,VWS V14.01,2013-11-05 17:49:00,
2013-11-05 11:54:00,45.2,36.0,30.17,WSW,256,2.0,7.0,70,0.00,,---,0.00,VWS V14.01,2013-11-05 17:54:00,
2013-11-05 11:59:00,45.0,35.8,30.17,WSW,246,3.0,10.0,70,0.00,,---,0.00,VWS V14.01,2013-11-05 17:59:00,
2013-11-05 12:04:00,45.0,35.8,30.17,West,264,2.0,6.0,70,0.00,,---,0.00,VWS V14.01,2013-11-05 18:04:00,
2013-11-05 12:09:00,45.0,35.5,30.17,SW,232,1.0,6.0,69,0.00,,---,0.00,VWS V14.01,2013-11-05 18:09:00,
2013-11-05 12:15:00,44.5,35.3,30.15,WSW,252,0.0,6.0,70,0.00,,---,0.00,VWS V14.01,2013-11-05 18:15:00,
2013-11-05 12:20:00,44.4,35.6,30.15,West,260,3.0,6.0,71,0.00,,---,0.00,VWS V14.01,2013-11-05 18:20:00,
2013-11-05 12:25:00,44.5,35.3,30.15,SW,232,3.0,6.0,70,0.00,,---,0.00,VWS V14.01,2013-11-05 18:25:00,
2013-11-05 12:30:00,44.5,35.0,30.15,WNW,298,4.0,6.0,69,0.00,,---,0.00,VWS V14.01,2013-11-05 18:30:00,
2013-11-05 12:35:00,44.3,35.2,30.15,SSE,153,2.0,6.0,70,0.00,,---,0.00,VWS V14.01,2013-11-05 18:35:00,
2013-11-05 12:40:00,44.4,34.5,30.15,WSW,246,6.0,6.0,68,0.00,,---,0.00,VWS V14.01,2013-11-05 18:40:00,
2013-11-05 12:45:00,44.3,34.8,30.15,SSW,209,4.0,6.0,69,0.00,,---,0.00,VWS V14.01,2013-11-05 18:45:00,
2013-11-05 12:50:00,44.4,34.9,30.15,WNW,293,1.0,6.0,69,0.00,,---,0.00,VWS V14.01,2013-11-05 18:50:00,
2013-11-05 12:55:00,44.6,35.4,30.15,West,267,1.0,6.0,70,0.00,,---,0.00,VWS V14.01,2013-11-05 18:55:00,
2013-11-05 13:00:00,44.7,35.5,30.14,WSW,246,1.0,6.0,70,0.00,,---,0.00,VWS V14.01,2013-11-05 19:00:00,
2013-11-05 13:05:00,44.9,35.4,30.14,WSW,251,3.0,4.0,69,0.00,,---,0.00,VWS V14.01,2013-11-05 19:05:00,
2013-11-05 13:10:00,44.9,35.4,30.14,SSE,160,0.0,4.0,69,0.00,,---,0.00,VWS V14.01,2013-11-05 19:10:00,
2013-11-05 13:15:00,45.4,35.5,30.13,West,272,1.0,4.0,68,0.00,,---,0.00,VWS V14.01,2013-11-05 19:15:00,
2013-11-05 13:20:00,45.2,35.3,30.13,WNW,284,3.0,5.0,68,0.00,,---,0.00,VWS V14.01,2013-11-05 19:20:00,
2013-11-05 13:25:00,45.1,35.2,30.13,West,261,2.0,6.0,68,0.00,,---,0.00,VWS V14.01,2013-11-05 19:25:00,
2013-11-05 13:30:00,45.2,34.9,30.12,WSW,256,3.0,3.0,67,0.00,,---,0.00,VWS V14.01,2013-11-05 19:30:00,
2013-11-05 13:35:00,45.2,34.5,30.12,WSW,250,3.0,5.0,66,0.00,,---,0.00,VWS V14.01,2013-11-05 19:35:00,
2013-11-05 13:40:00,44.9,34.2,30.12,WSW,256,0.0,5.0,66,0.00,,---,0.00,VWS V14.01,2013-11-05 19:40:00,
2013-11-05 13:45:00,44.9,34.2,30.12,WNW,288,2.0,6.0,66,0.00,,---,0.00,VWS V14.01,2013-11-05 19:45:00,
2013-11-05 13:50:00,44.6,34.3,30.12,West,265,1.0,6.0,67,0.00,,---,0.00,VWS V14.01,2013-11-05 19:50:00,
2013-11-05 13:55:00,44.5,33.9,30.12,WNW,284,2.0,6.0,66,0.00,,---,0.00,VWS V14.01,2013-11-05 19:55:00,
2013-11-05 14:00:00,44.3,33.3,30.12,West,275,3.0,3.0,65,0.00,,---,0.00,VWS V14.01,2013-11-05 20:00:00,
2013-11-05 14:05:00,44.2,33.2,30.12,West,275,1.0,5.0,65,0.00,,---,0.00,VWS V14.01,2013-11-05 20:05:00,
2013-11-05 14:10:00,44.2,33.2,30.12,WSW,253,2.0,5.0,65,0.00,,---,0.00,VWS V14.01,2013-11-05 20:10:00,
2013-11-05 14:15:00,44.1,33.5,30.10,WNW,283,0.0,5.0,66,0.00,,---,0.00,VWS V14.01,2013-11-05 20:15:00,
2013-11-05 14:21:00,44.3,34.0,30.10,West,269,1.0,5.0,67,0.00,,---,0.00,VWS V14.01,2013-11-05 20:21:00,
2013-11-05 14:26:00,44.4,33.8,30.10,NNE,15,0.0,5.0,66,0.00,,---,0.00,VWS V14.01,2013-11-05 20:26:00,
2013-11-05 14:31:00,44.5,33.9,30.10,WSW,256,0.0,1.0,66,0.00,,---,0.00,VWS V14.01,2013-11-05 20:31:00,
2013-11-05 14:36:00,44.4,33.8,30.10,WNW,286,0.0,2.0,66,0.00,,---,0.00,VWS V14.01,2013-11-05 20:36:00,
2013-11-05 14:41:00,44.3,34.0,30.10,NNW,329,0.0,2.0,67,0.00,,---,0.00,VWS V14.01,2013-11-05 20:41:00,
2013-11-05 14:46:00,44.3,34.0,30.09,ESE,105,1.0,2.0,67,0.00,,---,0.00,VWS V14.01,2013-11-05 20:46:00,
2013-11-05 14:51:00,44.3,34.8,30.09,ESE,104,0.0,2.0,69,0.00,,---,0.00,VWS V14.01,2013-11-05 20:51:00,
2013-11-05 14:56:00,44.2,34.0,30.09,ESE,119,0.0,2.0,67,0.00,,---,0.00,VWS V14.01,2013-11-05 20:56:00,
2013-11-05 15:01:00,44.1,34.2,30.10,ESE,120,0.0,0.0,68,0.00,,---,0.00,VWS V14.01,2013-11-05 21:01:00,
2013-11-05 15:06:00,44.3,35.2,30.10,ESE,119,0.0,0.0,70,0.00,,---,0.00,VWS V14.01,2013-11-05 21:06:00,
2013-11-05 15:11:00,44.4,35.2,30.10,ESE,119,0.0,0.0,70,0.00,,---,0.00,VWS V14.01,2013-11-05 21:11:00,
2013-11-05 15:16:00,44.4,35.2,30.09,ESE,119,0.0,0.0,70,0.00,,---,0.00,VWS V14.01,2013-11-05 21:16:00,
2013-11-05 15:21:00,44.3,35.2,30.09,ESE,120,0.0,0.0,70,0.00,,---,0.00,VWS V14.01,2013-11-05 21:21:00,
2013-11-05 15:26:00,44.1,34.6,30.09,ESE,119,0.0,0.0,69,0.00,,---,0.00,VWS V14.01,2013-11-05 21:26:00,
2013-11-05 15:31:00,43.9,34.0,30.09,ESE,119,0.0,0.0,68,0.00,,---,0.00,VWS V14.01,2013-11-05 21:31:00,
2013-11-05 15:36:00,43.8,34.3,30.09,ESE,119,0.0,0.0,69,0.00,,---,0.00,VWS V14.01,2013-11-05 21:36:00,
2013-11-05 15:41:00,43.7,34.6,30.09,ESE,119,0.0,0.0,70,0.00,,---,0.00,VWS V14.01,2013-11-05 21:41:00,
2013-11-05 15:46:00,43.6,34.5,30.08,ESE,119,0.0,0.0,70,0.00,,---,0.00,VWS V14.01,2013-11-05 21:46:00,
2013-11-05 15:51:00,43.5,34.7,30.08,ESE,119,0.0,0.0,71,0.00,,---,0.00,VWS V14.01,2013-11-05 21:51:00,
2013-11-05 15:56:00,43.4,35.3,30.08,ESE,119,0.0,0.0,73,0.00,,---,0.00,VWS V14.01,2013-11-05 21:56:00,
2013-11-05 16:01:00,43.3,35.2,30.07,ESE,119,0.0,0.0,73,0.00,,---,0.00,VWS V14.01,2013-11-05 22:01:00,
2013-11-05 16:06:00,43.2,35.1,30.07,ESE,120,0.0,0.0,73,0.00,,---,0.00,VWS V14.01,2013-11-05 22:06:00,
2013-11-05 16:11:00,43.1,35.4,30.07,ESE,119,0.0,0.0,74,0.00,,---,0.00,VWS V14.01,2013-11-05 22:11:00,
2013-11-05 16:16:00,42.9,35.2,30.06,ESE,119,0.0,0.0,74,0.00,,---,0.00,VWS V14.01,2013-11-05 22:16:00,
2013-11-05 16:21:00,42.8,35.8,30.06,ESE,120,0.0,0.0,76,0.00,,---,0.00,VWS V14.01,2013-11-05 22:21:00,
2013-11-05 16:27:00,42.6,35.6,30.06,ESE,119,0.0,0.0,76,0.00,,---,0.00,VWS V14.01,2013-11-05 22:27:00,
2013-11-05 16:32:00,42.4,35.7,30.07,ESE,119,0.0,0.0,77,0.00,,---,0.00,VWS V14.01,2013-11-05 22:32:00,
2013-11-05 16:37:00,42.2,35.2,30.07,ESE,119,0.0,0.0,76,0.00,,---,0.00,VWS V14.01,2013-11-05 22:37:00,
2013-11-05 16:42:00,42.0,35.3,30.07,ESE,119,0.0,0.0,77,0.00,,---,0.00,VWS V14.01,2013-11-05 22:42:00,
2013-11-05 16:47:00,41.9,36.2,30.05,ESE,119,0.0,0.0,80,0.00,,---,0.00,VWS V14.01,2013-11-05 22:47:00,
2013-11-05 16:52:00,41.7,36.0,30.05,ESE,119,0.0,0.0,80,0.00,,---,0.00,VWS V14.01,2013-11-05 22:52:00,
2013-11-05 16:57:00,41.7,36.3,30.05,ESE,119,0.0,0.0,81,0.00,,---,0.00,VWS V14.01,2013-11-05 22:57:00,
2013-11-05 17:02:00,41.5,35.8,30.05,ESE,119,0.0,0.0,80,0.00,,---,0.00,VWS V14.01,2013-11-05 23:02:00,
2013-11-05 17:07:00,41.4,35.7,30.05,ESE,119,0.0,0.0,80,0.00,,---,0.00,VWS V14.01,2013-11-05 23:07:00,
2013-11-05 17:12:00,41.3,35.0,30.05,ESE,119,0.0,0.0,78,0.00,,---,0.00,VWS V14.01,2013-11-05 23:12:00,
2013-11-05 17:17:00,41.3,35.0,30.05,ESE,119,0.0,0.0,78,0.00,,---,0.00,VWS V14.01,2013-11-05 23:17:00,
2013-11-05 17:22:00,41.2,35.2,30.05,ESE,119,0.0,0.0,79,0.00,,---,0.00,VWS V14.01,2013-11-05 23:22:00,
2013-11-05 17:27:00,41.1,34.8,30.05,ESE,119,0.0,0.0,78,0.00,,---,0.00,VWS V14.01,2013-11-05 23:27:00,
2013-11-05 17:32:00,41.2,35.2,30.07,ESE,119,0.0,0.0,79,0.00,,---,0.00,VWS V14.01,2013-11-05 23:32:00,
2013-11-05 17:37:00,41.2,36.1,30.07,ESE,119,0.0,0.0,82,0.00,,---,0.00,VWS V14.01,2013-11-05 23:37:00,
2013-11-05 17:42:00,41.1,36.3,30.07,ESE,119,0.0,0.0,83,0.00,,---,0.00,VWS V14.01,2013-11-05 23:42:00,
2013-11-05 17:47:00,40.9,36.5,30.05,ESE,119,0.0,0.0,84,0.00,,---,0.00,VWS V14.01,2013-11-05 23:47:00,
2013-11-05 17:52:00,40.8,36.7,30.05,ESE,119,0.0,0.0,85,0.00,,---,0.00,VWS V14.01,2013-11-05 23:52:00,
2013-11-05 17:57:00,40.5,36.7,30.05,ESE,119,0.0,1.0,86,0.00,,---,0.00,VWS V14.01,2013-11-05 23:57:00,
2013-11-05 18:02:00,40.4,36.0,30.05,ESE,119,0.0,0.0,84,0.00,,---,0.00,VWS V14.01,2013-11-06 00:02:00,
2013-11-05 18:07:00,40.3,35.9,30.05,ESE,119,0.0,0.0,84,0.00,,---,0.00,VWS V14.01,2013-11-06 00:07:00,
2013-11-05 18:12:00,40.3,35.6,30.05,ESE,120,0.0,0.0,83,0.00,,---,0.00,VWS V14.01,2013-11-06 00:12:00,
2013-11-05 18:17:00,40.4,36.5,30.05,ESE,119,0.0,0.0,86,0.00,,---,0.00,VWS V14.01,2013-11-06 00:17:00,
2013-11-05 18:22:00,40.3,36.5,30.05,ESE,119,0.0,0.0,86,0.00,,---,0.00,VWS V14.01,2013-11-06 00:22:00,
2013-11-05 18:27:00,40.1,36.8,30.05,ESE,119,0.0,0.0,88,0.00,,---,0.00,VWS V14.01,2013-11-06 00:27:00,
2013-11-05 18:32:00,40.0,36.7,30.04,ESE,119,0.0,0.0,88,0.00,,---,0.00,VWS V14.01,2013-11-06 00:32:00,
2013-11-05 18:38:00,39.8,36.8,30.04,ESE,119,0.0,1.0,89,0.01,,---,0.01,VWS V14.01,2013-11-06 00:38:00,
2013-11-05 18:43:00,39.5,37.1,30.04,ESE,119,0.0,1.0,91,0.01,,---,0.01,VWS V14.01,2013-11-06 00:43:00,
2013-11-05 18:48:00,39.2,37.1,30.04,ESE,119,0.0,1.0,92,0.01,,---,0.01,VWS V14.01,2013-11-06 00:48:00,
2013-11-05 18:53:00,39.1,37.0,30.04,ESE,120,0.0,1.0,92,0.02,,---,0.02,VWS V14.01,2013-11-06 00:53:00,
2013-11-05 18:58:00,39.0,37.2,30.04,ESE,115,0.0,1.0,93,0.02,,---,0.02,VWS V14.01,2013-11-06 00:58:00,
2013-11-05 19:03:00,38.9,37.3,30.03,ESE,115,0.0,0.0,94,0.02,,---,0.02,VWS V14.01,2013-11-06 01:03:00,
2013-11-05 19:08:00,38.9,37.3,30.03,ESE,115,0.0,0.0,94,0.03,,---,0.03,VWS V14.01,2013-11-06 01:08:00,
2013-11-05 19:13:00,38.8,37.2,30.03,ESE,116,0.0,0.0,94,0.03,,---,0.03,VWS V14.01,2013-11-06 01:13:00,
2013-11-05 19:18:00,38.8,37.2,30.02,ESE,115,0.0,0.0,94,0.03,,---,0.03,VWS V14.01,2013-11-06 01:18:00,
2013-11-05 19:23:00,38.7,37.4,30.02,ESE,115,0.0,0.0,95,0.04,,---,0.04,VWS V14.01,2013-11-06 01:23:00,
2013-11-05 19:28:00,38.7,37.4,30.02,ESE,115,0.0,0.0,95,0.04,,---,0.04,VWS V14.01,2013-11-06 01:28:00,
2013-11-05 19:33:00,38.6,37.3,30.00,NE,55,0.0,0.0,95,0.04,,---,0.04,VWS V14.01,2013-11-06 01:33:00,
2013-11-05 19:38:00,38.5,37.2,30.00,NE,51,0.0,0.0,95,0.04,,---,0.04,VWS V14.01,2013-11-06 01:38:00,
2013-11-05 19:43:00,38.5,37.2,30.00,NE,51,0.0,0.0,95,0.05,,---,0.05,VWS V14.01,2013-11-06 01:43:00,
2013-11-05 19:48:00,38.4,37.4,30.00,NE,51,0.0,0.0,96,0.05,,---,0.05,VWS V14.01,2013-11-06 01:48:00,
2013-11-05 19:53:00,38.4,37.4,30.00,NE,51,0.0,0.0,96,0.05,,---,0.05,VWS V14.01,2013-11-06 01:53:00,
2013-11-05 19:58:00,38.3,37.3,30.00,NE,51,0.0,0.0,96,0.06,,---,0.06,VWS V14.01,2013-11-06 01:58:00,
2013-11-05 20:03:00,38.2,37.2,29.99,ENE,66,0.0,2.0,96,0.05,,---,0.07,VWS V14.01,2013-11-06 02:03:00,
2013-11-05 20:08:00,38.2,37.2,29.99,NE,46,0.0,2.0,96,0.06,,---,0.08,VWS V14.01,2013-11-06 02:08:00,
2013-11-05 20:13:00,38.1,37.1,29.99,East,86,0.0,2.0,96,0.07,,---,0.09,VWS V14.01,2013-11-06 02:13:00,
2013-11-05 20:18:00,37.9,36.9,29.98,ENE,76,0.0,2.0,96,0.07,,---,0.09,VWS V14.01,2013-11-06 02:18:00,
2013-11-05 20:23:00,37.8,36.8,29.98,NNE,17,5.0,5.0,96,0.08,,---,0.10,VWS V14.01,2013-11-06 02:23:00,
2013-11-05 20:28:00,37.6,36.6,29.98,NE,53,1.0,5.0,96,0.09,,---,0.11,VWS V14.01,2013-11-06 02:28:00,
2013-11-05 20:34:00,37.5,36.5,29.97,ENE,58,0.0,2.0,96,0.07,,---,0.11,VWS V14.01,2013-11-06 02:34:00,
2013-11-05 20:39:00,37.3,36.3,29.97,NE,44,0.0,2.0,96,0.08,,---,0.12,VWS V14.01,2013-11-06 02:39:00,
2013-11-05 20:44:00,37.2,36.2,29.97,East,87,0.0,2.0,96,0.09,,---,0.13,VWS V14.01,2013-11-06 02:44:00,
2013-11-05 20:49:00,36.9,35.9,29.96,WNW,287,0.0,4.0,96,0.10,,---,0.14,VWS V14.01,2013-11-06 02:49:00,
2013-11-05 20:54:00,36.8,35.8,29.96,NE,43,0.0,4.0,96,0.10,,---,0.14,VWS V14.01,2013-11-06 02:54:00,
2013-11-05 20:59:00,36.6,35.6,29.96,NE,46,1.0,5.0,96,0.11,,---,0.15,VWS V14.01,2013-11-06 02:59:00,
2013-11-05 21:04:00,36.4,35.4,29.95,East,94,1.0,5.0,96,0.10,,---,0.16,VWS V14.01,2013-11-06 03:04:00,
2013-11-05 21:09:00,36.2,35.2,29.95,NE,47,2.0,5.0,96,0.10,,---,0.16,VWS V14.01,2013-11-06 03:09:00,
2013-11-05 21:14:00,36.0,35.0,29.95,ENE,68,0.0,5.0,96,0.11,,---,0.17,VWS V14.01,2013-11-06 03:14:00,
2013-11-05 21:19:00,35.8,34.8,29.94,East,84,2.0,5.0,96,0.12,,---,0.18,VWS V14.01,2013-11-06 03:19:00,
2013-11-05 21:24:00,35.6,34.6,29.94,NE,37,0.0,6.0,96,0.12,,---,0.18,VWS V14.01,2013-11-06 03:24:00,
2013-11-05 21:29:00,35.4,34.4,29.94,ENE,69,3.0,6.0,96,0.13,,---,0.19,VWS V14.01,2013-11-06 03:29:00,
2013-11-05 21:34:00,35.1,34.1,29.94,ENE,63,3.0,4.0,96,0.09,,---,0.20,VWS V14.01,2013-11-06 03:34:00,
2013-11-05 21:39:00,34.9,33.9,29.94,ENE,71,1.0,4.0,96,0.09,,---,0.20,VWS V14.01,2013-11-06 03:39:00,
2013-11-05 21:44:00,34.8,33.8,29.94,SW,227,0.0,4.0,96,0.09,,---,0.20,VWS V14.01,2013-11-06 03:44:00,
2013-11-05 21:49:00,34.7,33.7,29.94,NNW,348,1.0,4.0,96,0.10,,---,0.21,VWS V14.01,2013-11-06 03:49:00,
2013-11-05 21:54:00,34.7,33.7,29.94,NE,47,2.0,4.0,96,0.10,,---,0.21,VWS V14.01,2013-11-06 03:54:00,
2013-11-05 21:59:00,34.5,33.5,29.93,NW,321,0.0,4.0,96,0.11,,---,0.22,VWS V14.01,2013-11-06 03:59:00,
2013-11-05 22:05:00,34.4,33.4,29.93,NE,40,0.0,0.0,96,0.07,,---,0.22,VWS V14.01,2013-11-06 04:05:00,
2013-11-05 22:10:00,34.2,33.2,29.93,NNW,338,0.0,3.0,96,0.07,,---,0.22,VWS V14.01,2013-11-06 04:10:00,
2013-11-05 22:15:00,34.1,33.1,29.93,NNW,338,0.0,3.0,96,0.08,,---,0.23,VWS V14.01,2013-11-06 04:15:00,
2013-11-05 22:20:00,33.9,33.1,29.93,NE,44,0.0,3.0,97,0.08,,---,0.23,VWS V14.01,2013-11-06 04:20:00,
2013-11-05 22:25:00,33.8,33.0,29.93,North,11,1.0,3.0,97,0.08,,---,0.23,VWS V14.01,2013-11-06 04:25:00,
2013-11-05 22:30:00,33.7,32.9,29.92,East,83,1.0,3.0,97,0.09,,---,0.24,VWS V14.01,2013-11-06 04:30:00,
2013-11-05 22:35:00,33.6,32.8,29.92,ENE,61,1.0,2.0,97,0.05,,---,0.24,VWS V14.01,2013-11-06 04:35:00,
2013-11-05 22:40:00,33.5,32.7,29.92,NE,40,0.0,3.0,97,0.05,,---,0.24,VWS V14.01,2013-11-06 04:40:00,
2013-11-05 22:45:00,33.3,32.5,29.93,NNW,331,0.0,3.0,97,0.05,,---,0.24,VWS V14.01,2013-11-06 04:45:00,
2013-11-05 22:50:00,33.1,32.3,29.93,NNE,13,0.0,3.0,97,0.05,,---,0.24,VWS V14.01,2013-11-06 04:50:00,
2013-11-05 22:55:00,32.9,32.1,29.93,NNE,13,0.0,3.0,97,0.05,,---,0.24,VWS V14.01,2013-11-06 04:55:00,
2013-11-05 23:00:00,32.8,32.0,29.92,NNE,13,0.0,0.0,97,0.02,,---,0.00,VWS V14.01,2013-11-06 05:00:00,
2013-11-05 23:02:00,32.7,31.9,29.92,NNE,13,0.0,0.0,97,0.02,,---,0.00,VWS V14.01,2013-11-06 05:02:00,
2013-11-05 23:03:00,32.7,31.9,29.92,NE,42,0.0,0.0,97,0.02,,---,0.00,VWS V14.01,2013-11-06 05:03:00,
2013-11-05 23:07:00,32.7,31.9,29.92,NE,42,0.0,0.0,97,0.02,,---,0.00,VWS V14.01,2013-11-06 05:07:00,
2013-11-05 23:10:00,32.7,31.9,29.92,ESE,105,0.0,0.0,97,0.02,,---,0.00,VWS V14.01,2013-11-06 05:10:00,
2013-11-05 23:15:00,32.7,31.9,29.90,East,87,0.0,0.0,97,0.02,,---,0.00,VWS V14.01,2013-11-06 05:15:00,
2013-11-05 23:20:00,32.6,31.8,29.90,ENE,63,0.0,0.0,97,0.02,,---,0.00,VWS V14.01,2013-11-06 05:20:00,
2013-11-05 23:25:00,32.6,31.8,29.90,NE,48,0.0,1.0,97,0.02,,---,0.00,VWS V14.01,2013-11-06 05:25:00,
2013-11-05 23:30:00,32.6,31.8,29.90,NE,44,0.0,0.0,97,0.00,,---,0.00,VWS V14.01,2013-11-06 05:30:00,
2013-11-05 23:35:00,32.5,31.7,29.90,ENE,68,0.0,1.0,97,0.00,,---,0.00,VWS V14.01,2013-11-06 05:35:00,
2013-11-05 23:40:00,32.5,31.7,29.90,NNE,29,0.0,1.0,97,0.00,,---,0.00,VWS V14.01,2013-11-06 05:40:00,
2013-11-05 23:46:00,32.5,31.7,29.89,WSW,241,0.0,1.0,97,0.00,,---,0.00,VWS V14.01,2013-11-06 05:46:00,
2013-11-05 23:51:00,32.6,31.8,29.89,ENE,59,0.0,2.0,97,0.00,,---,0.00,VWS V14.01,2013-11-06 05:51:00,
2013-11-05 23:56:00,32.5,31.7,29.89,NE,37,1.0,2.0,97,0.00,,---,0.00,VWS V14.01,2013-11-06 05:56:00,